Time;durP1;ratioP1;P1;durP2;ratioP2;P2;SDS_P1;SDS_P2;PMS_P1;PMS_P2;Temp;Humidity;BMP_temperature;BMP_pressure;BME280_temperature;BME280_humidity;BME280_pressure;Samples;Min_cycle;Max_cycle;Signal;HPM_P1;HPM_P2
2023/11/28 00:02:19;;;;;;;4.47;1.00;;;8.20;99.90;;;;;;5027868;28;20036;-76
2023/11/28 00:04:45;;;;;;;1.65;0.80;;;8.20;99.90;;;;;;5044051;28;20041;-76
2023/11/28 00:07:11;;;;;;;2.88;1.00;;;8.20;99.90;;;;;;5027715;28;20310;-76
2023/11/28 00:09:37;;;;;;;2.80;0.75;;;8.20;99.90;;;;;;5027517;28;20048;-76
2023/11/28 00:12:03;;;;;;;3.50;0.80;;;8.20;99.90;;;;;;5045298;28;20037;-76
2023/11/28 00:14:28;;;;;;;3.83;0.98;;;8.30;99.90;;;;;;5044777;28;20390;-77
2023/11/28 00:16:54;;;;;;;4.03;0.93;;;8.30;99.90;;;;;;5043857;28;20029;-77
2023/11/28 00:19:20;;;;;;;1.05;0.88;;;8.30;99.90;;;;;;5043917;28;20107;-77
2023/11/28 00:21:46;;;;;;;5.45;1.38;;;8.30;99.90;;;;;;5044964;28;20064;-77
2023/11/28 00:24:11;;;;;;;3.83;0.90;;;8.30;99.90;;;;;;5044016;28;20030;-77
2023/11/28 00:26:37;;;;;;;1.45;0.90;;;8.30;99.90;;;;;;5044683;28;20032;-76
2023/11/28 00:29:03;;;;;;;1.60;0.75;;;8.30;99.90;;;;;;5043742;28;20027;-76
2023/11/28 00:31:28;;;;;;;4.10;1.80;;;8.30;99.90;;;;;;5027504;28;20263;-76
2023/11/28 00:33:54;;;;;;;1.80;0.80;;;8.30;99.90;;;;;;5045048;28;20279;-76
2023/11/28 00:36:20;;;;;;;2.10;1.23;;;8.20;99.90;;;;;;5044983;28;20036;-76
2023/11/28 00:38:46;;;;;;;1.75;0.80;;;8.30;99.90;;;;;;5043839;28;20092;-76
2023/11/28 00:41:12;;;;;;;0.82;0.70;;;8.30;99.90;;;;;;5027832;28;20029;-76
2023/11/28 00:43:37;;;;;;;3.80;0.80;;;8.30;99.90;;;;;;5047513;28;20025;-76
2023/11/28 00:46:03;;;;;;;4.32;0.90;;;8.30;99.90;;;;;;5030967;28;20032;-76
2023/11/28 00:48:29;;;;;;;3.15;0.77;;;8.30;99.90;;;;;;5048280;28;20034;-76
2023/11/28 00:50:58;;;;;;;4.07;0.98;;;8.40;99.90;;;;;;5030612;28;20050;-76
2023/11/28 00:53:23;;;;;;;1.42;0.80;;;8.50;99.90;;;;;;5047455;28;20171;-77
2023/11/28 00:55:49;;;;;;;2.85;0.80;;;8.50;99.90;;;;;;5048455;28;20052;-76
2023/11/28 00:58:15;;;;;;;1.33;0.68;;;8.50;99.90;;;;;;5047253;28;20097;-76
2023/11/28 01:00:40;;;;;;;6.15;1.05;;;8.50;99.90;;;;;;5046947;28;20251;-77
2023/11/28 01:03:06;;;;;;;1.40;0.80;;;8.50;99.90;;;;;;5048046;28;20075;-76
2023/11/28 01:05:32;;;;;;;2.67;0.80;;;8.50;99.90;;;;;;5046916;28;20382;-76
2023/11/28 01:07:58;;;;;;;2.60;0.73;;;8.50;99.90;;;;;;5047086;28;20092;-75
2023/11/28 01:10:24;;;;;;;2.05;0.88;;;8.50;99.90;;;;;;5046822;28;20291;-76
2023/11/28 01:12:50;;;;;;;3.97;1.38;;;8.50;99.90;;;;;;5030584;28;20033;-77
2023/11/28 01:15:16;;;;;;;3.67;0.98;;;8.50;99.90;;;;;;5048118;28;20036;-76
2023/11/28 01:17:42;;;;;;;1.80;0.80;;;8.50;99.90;;;;;;5049949;28;20052;-76
2023/11/28 01:20:08;;;;;;;3.15;0.98;;;8.50;99.90;;;;;;5048467;28;20041;-76
2023/11/28 01:22:34;;;;;;;3.70;0.90;;;8.40;99.90;;;;;;5046814;28;20025;-76
2023/11/28 01:25:00;;;;;;;3.50;1.00;;;8.40;99.90;;;;;;5013960;28;20036;-74
2023/11/28 01:27:25;;;;;;;5.38;1.10;;;8.40;99.90;;;;;;5047932;28;20026;-76
2023/11/28 01:29:51;;;;;;;3.60;1.10;;;8.30;99.90;;;;;;5047760;28;20295;-76
2023/11/28 01:32:16;;;;;;;2.95;1.05;;;8.30;99.90;;;;;;5030454;28;20282;-76
2023/11/28 01:34:42;;;;;;;4.38;1.02;;;8.30;99.90;;;;;;5046800;28;20230;-76
2023/11/28 01:37:08;;;;;;;4.45;0.90;;;8.30;99.90;;;;;;5047385;28;20222;-76
2023/11/28 01:39:33;;;;;;;2.85;0.88;;;8.30;99.90;;;;;;5030121;28;20326;-76
2023/11/28 01:41:59;;;;;;;2.72;0.95;;;8.30;99.90;;;;;;5046430;28;20182;-76
2023/11/28 01:44:25;;;;;;;2.80;0.77;;;8.30;99.90;;;;;;5046444;28;20029;-76
2023/11/28 01:46:51;;;;;;;1.80;0.90;;;8.30;99.90;;;;;;5047199;28;20217;-76
2023/11/28 01:49:17;;;;;;;4.15;1.10;;;8.20;99.90;;;;;;5013316;28;20064;-76
2023/11/28 01:51:43;;;;;;;2.10;0.98;;;8.10;99.90;;;;;;5030051;28;20101;-76
2023/11/28 01:54:08;;;;;;;2.53;0.90;;;8.10;99.90;;;;;;5045209;28;20025;-76
2023/11/28 01:56:34;;;;;;;5.05;1.05;;;8.00;99.90;;;;;;5013437;28;20195;-76
2023/11/28 01:59:00;;;;;;;3.03;1.10;;;8.00;99.90;;;;;;5046277;28;20305;-76
2023/11/28 02:01:25;;;;;;;6.07;1.65;;;7.90;99.90;;;;;;5047183;28;20037;-76
2023/11/28 02:03:51;;;;;;;1.90;0.93;;;7.90;99.90;;;;;;5029690;28;20042;-77
2023/11/28 02:06:20;;;;;;;2.90;0.88;;;7.90;99.90;;;;;;5029627;28;20142;-76
2023/11/28 02:08:46;;;;;;;1.88;0.80;;;7.80;99.90;;;;;;5045911;28;20053;-76
2023/11/28 02:11:12;;;;;;;3.10;1.00;;;7.80;99.90;;;;;;5046837;28;20234;-76
2023/11/28 02:13:37;;;;;;;5.32;1.10;;;7.70;99.90;;;;;;5013064;28;20205;-76
2023/11/28 02:16:14;;;;;;;2.83;0.75;;;7.70;99.90;;;;;;5045802;28;20040;-76
2023/11/28 02:18:40;;;;;;;2.92;0.90;;;7.70;99.90;;;;;;5029249;28;20035;-76
2023/11/28 02:21:06;;;;;;;5.13;1.00;;;7.70;99.90;;;;;;5012851;28;20042;-77
2023/11/28 02:23:32;;;;;;;2.88;0.80;;;7.70;99.90;;;;;;5012820;28;20029;-76
2023/11/28 02:26:03;;;;;;;2.72;0.93;;;7.70;99.90;;;;;;5045572;28;20041;-76
2023/11/28 02:28:29;;;;;;;3.08;1.02;;;7.60;99.90;;;;;;5029349;28;20030;-77
2023/11/28 02:30:58;;;;;;;4.40;1.00;;;7.50;99.90;;;;;;5046273;28;20041;-76
2023/11/28 02:33:24;;;;;;;1.90;0.88;;;7.40;99.90;;;;;;5029125;28;20021;-76
2023/11/28 02:35:50;;;;;;;2.67;1.00;;;7.40;99.90;;;;;;5045528;28;20034;-76
2023/11/28 02:38:15;;;;;;;1.98;0.80;;;7.50;99.90;;;;;;5028946;28;20199;-77
2023/11/28 02:40:41;;;;;;;2.53;1.00;;;7.50;99.90;;;;;;5045270;28;20207;-77
2023/11/28 02:43:07;;;;;;;3.38;1.00;;;7.50;99.90;;;;;;5045224;28;20071;-76
2023/11/28 02:45:33;;;;;;;4.20;0.93;;;7.50;99.90;;;;;;5012148;28;20045;-76
2023/11/28 02:47:59;;;;;;;4.65;0.90;;;7.50;99.90;;;;;;5044938;28;20041;-76
2023/11/28 02:50:24;;;;;;;3.45;1.20;;;7.50;99.90;;;;;;5028303;28;20300;-76
2023/11/28 02:52:50;;;;;;;4.35;1.08;;;7.60;99.90;;;;;;5045050;28;20030;-77
2023/11/28 02:55:16;;;;;;;4.00;1.10;;;7.70;99.90;;;;;;5045899;28;20025;-76
2023/11/28 02:57:42;;;;;;;2.25;0.90;;;7.70;99.90;;;;;;5045066;28;20037;-76
2023/11/28 03:00:08;;;;;;;4.72;0.90;;;7.80;99.90;;;;;;5044993;28;20025;-76
2023/11/28 03:02:37;;;;;;;5.00;1.20;;;7.80;99.90;;;;;;5012096;28;20025;-76
2023/11/28 03:05:03;;;;;;;5.22;0.95;;;7.90;99.90;;;;;;5044603;28;20033;-76
2023/11/28 03:07:28;;;;;;;3.60;0.93;;;7.90;99.90;;;;;;5044815;28;20034;-77
2023/11/28 03:09:54;;;;;;;1.83;0.88;;;7.90;99.90;;;;;;5028387;28;20025;-76
2023/11/28 03:12:20;;;;;;;2.28;0.90;;;7.90;99.90;;;;;;5028372;28;20100;-76
2023/11/28 03:14:45;;;;;;;3.00;0.82;;;7.90;99.90;;;;;;5044721;28;20037;-77
2023/11/28 03:17:11;;;;;;;5.03;1.80;;;7.90;99.90;;;;;;5044735;28;20033;-77
2023/11/28 03:19:37;;;;;;;5.55;1.10;;;7.90;99.90;;;;;;5028224;28;20037;-77
2023/11/28 03:22:03;;;;;;;4.07;1.10;;;7.90;99.90;;;;;;5028234;28;20030;-76
2023/11/28 03:24:29;;;;;;;4.88;1.27;;;7.90;99.90;;;;;;5044678;28;20029;-76
2023/11/28 03:26:54;;;;;;;4.13;0.98;;;7.90;99.90;;;;;;5027939;28;20033;-77
2023/11/28 03:29:20;;;;;;;1.58;0.85;;;7.90;99.90;;;;;;5044561;28;20147;-76
2023/11/28 03:31:46;;;;;;;6.22;1.08;;;7.90;99.90;;;;;;5028072;28;20021;-76
2023/11/28 03:34:12;;;;;;;6.30;1.30;;;7.80;99.90;;;;;;5044506;28;20041;-76
2023/11/28 03:36:38;;;;;;;4.82;1.10;;;7.80;99.90;;;;;;5045179;28;20093;-76
2023/11/28 03:39:03;;;;;;;6.85;1.10;;;7.80;99.90;;;;;;5027860;28;20033;-76
2023/11/28 03:41:29;;;;;;;4.43;1.30;;;7.70;99.90;;;;;;5027985;28;20076;-76
2023/11/28 03:43:55;;;;;;;3.83;1.00;;;7.60;99.90;;;;;;5044476;28;20248;-76
2023/11/28 03:46:21;;;;;;;3.90;1.20;;;7.60;99.90;;;;;;5027925;28;20096;-76
2023/11/28 03:48:46;;;;;;;3.70;1.10;;;7.60;99.90;;;;;;5044011;28;20056;-75
2023/11/28 03:51:12;;;;;;;4.57;1.30;;;7.50;99.90;;;;;;5027897;28;20056;-76
2023/11/28 03:53:38;;;;;;;4.57;1.20;;;7.60;99.90;;;;;;5044299;28;20021;-76
2023/11/28 03:56:07;;;;;;;4.05;1.08;;;7.60;99.90;;;;;;5045269;28;20282;-75
2023/11/28 03:58:33;;;;;;;2.85;1.00;;;7.50;99.90;;;;;;5044004;28;20123;-75
2023/11/28 04:00:59;;;;;;;4.53;1.10;;;7.50;99.90;;;;;;5044132;28;20029;-76
2023/11/28 04:03:26;;;;;;;2.15;1.10;;;7.50;99.90;;;;;;5045068;28;20052;-76
2023/11/28 04:05:52;;;;;;;3.33;1.10;;;7.40;99.90;;;;;;5027826;28;20187;-76
2023/11/28 04:08:17;;;;;;;6.82;1.27;;;7.40;99.90;;;;;;5044122;28;20068;-76
2023/11/28 04:10:43;;;;;;;5.03;1.00;;;7.40;99.90;;;;;;5011178;28;20036;-76
2023/11/28 04:13:09;;;;;;;3.25;0.90;;;7.50;99.90;;;;;;5011141;28;20097;-76
2023/11/28 04:15:34;;;;;;;4.43;1.30;;;7.50;99.90;;;;;;5045015;28;20143;-76
2023/11/28 04:18:03;;;;;;;2.42;0.90;;;7.60;99.90;;;;;;5047450;28;20021;-76
2023/11/28 04:20:28;;;;;;;7.05;1.52;;;7.60;99.90;;;;;;5048645;28;20287;-76
2023/11/28 04:22:54;;;;;;;4.07;1.08;;;7.60;99.90;;;;;;5048725;28;20044;-76
2023/11/28 04:25:20;;;;;;;4.05;1.00;;;7.70;99.90;;;;;;5048724;28;20244;-76
2023/11/28 04:27:45;;;;;;;7.45;1.10;;;7.70;99.90;;;;;;5031126;28;20040;-76
2023/11/28 04:30:11;;;;;;;5.07;1.10;;;7.80;99.90;;;;;;5031292;28;20199;-76
2023/11/28 04:32:37;;;;;;;6.18;1.50;;;7.80;99.90;;;;;;5048537;28;20290;-75
2023/11/28 04:35:03;;;;;;;5.50;1.20;;;7.80;99.90;;;;;;5031157;28;20029;-76
2023/11/28 04:37:29;;;;;;;3.08;1.48;;;7.90;99.90;;;;;;5047671;28;20230;-76
2023/11/28 04:39:55;;;;;;;4.18;1.23;;;7.90;99.90;;;;;;5048768;28;20121;-76
2023/11/28 04:42:21;;;;;;;4.55;1.00;;;7.90;99.90;;;;;;5047614;28;20040;-75
2023/11/28 04:44:46;;;;;;;5.75;1.20;;;7.90;99.90;;;;;;5048010;28;20040;-76
2023/11/28 04:47:12;;;;;;;7.32;1.33;;;7.90;99.90;;;;;;5047475;28;20048;-76
2023/11/28 04:49:38;;;;;;;6.25;1.30;;;8.00;99.90;;;;;;5048120;28;20314;-75
2023/11/28 04:52:03;;;;;;;2.08;0.88;;;7.90;99.90;;;;;;5048561;28;20029;-76
2023/11/28 04:54:29;;;;;;;3.97;0.80;;;7.90;99.90;;;;;;5030677;28;20052;-76
2023/11/28 04:56:55;;;;;;;5.60;1.08;;;7.90;99.90;;;;;;5030830;28;20044;-76
2023/11/28 04:59:21;;;;;;;3.67;1.17;;;8.00;99.90;;;;;;5030781;28;20034;-76
2023/11/28 05:01:47;;;;;;;5.00;0.90;;;7.90;99.90;;;;;;5047244;28;20040;-76
2023/11/28 05:04:13;;;;;;;3.80;0.93;;;7.90;99.90;;;;;;5047023;28;20075;-75
2023/11/28 05:06:38;;;;;;;5.35;1.00;;;7.90;99.90;;;;;;5047891;28;20029;-76
2023/11/28 05:09:05;;;;;;;6.60;1.15;;;8.00;99.90;;;;;;5047054;28;20029;-76
2023/11/28 05:11:31;;;;;;;5.05;1.23;;;8.00;99.90;;;;;;5046886;28;20040;-76
2023/11/28 05:13:58;;;;;;;3.80;1.10;;;8.00;99.90;;;;;;5030591;28;20214;-76
2023/11/28 05:16:23;;;;;;;3.85;1.88;;;8.00;99.90;;;;;;5046924;28;20152;-76
2023/11/28 05:18:49;;;;;;;3.40;1.05;;;8.00;99.90;;;;;;5030395;28;20061;-76
2023/11/28 05:21:15;;;;;;;3.15;1.00;;;8.00;99.90;;;;;;5047752;28;20049;-76
2023/11/28 05:23:40;;;;;;;3.28;0.90;;;8.00;99.90;;;;;;5047860;28;20021;-76
2023/11/28 05:26:06;;;;;;;4.43;1.10;;;8.00;99.90;;;;;;5046840;28;20033;-76
2023/11/28 05:28:32;;;;;;;4.47;1.30;;;8.00;99.90;;;;;;5047145;28;20029;-76
2023/11/28 05:30:58;;;;;;;6.22;1.10;;;7.90;99.90;;;;;;5046593;28;20302;-76
2023/11/28 05:33:24;;;;;;;6.60;1.70;;;7.90;99.90;;;;;;5046836;28;20060;-76
2023/11/28 05:35:49;;;;;;;3.67;1.42;;;7.90;99.90;;;;;;5046583;28;20025;-77
2023/11/28 05:38:15;;;;;;;3.13;1.20;;;7.80;99.90;;;;;;5046395;28;20092;-76
2023/11/28 05:40:41;;;;;;;5.05;1.23;;;7.80;99.90;;;;;;5030013;28;20105;-76
2023/11/28 05:43:07;;;;;;;3.00;1.08;;;7.80;99.90;;;;;;5046282;28;20294;-76
2023/11/28 05:45:33;;;;;;;7.82;2.88;;;7.70;99.90;;;;;;5046360;28;20282;-76
2023/11/28 05:47:58;;;;;;;3.58;1.67;;;7.70;99.90;;;;;;5046230;28;20033;-76
2023/11/28 05:50:24;;;;;;;5.38;1.55;;;7.70;99.90;;;;;;5029569;28;20045;-76
2023/11/28 05:52:51;;;;;;;2.60;0.90;;;7.60;99.90;;;;;;5047043;28;20030;-76
2023/11/28 05:55:19;;;;;;;6.22;1.40;;;7.50;99.90;;;;;;5046159;28;20061;-75
2023/11/28 05:57:45;;;;;;;4.38;1.25;;;7.40;99.90;;;;;;5030072;28;20025;-76
2023/11/28 06:00:12;;;;;;;7.18;1.20;;;7.40;99.90;;;;;;5047139;28;20234;-75
2023/11/28 06:02:39;;;;;;;4.53;1.20;;;7.30;99.90;;;;;;5045782;28;20231;-76
2023/11/28 06:05:08;;;;;;;3.92;1.15;;;7.30;99.90;;;;;;5046852;28;20100;-76
2023/11/28 06:07:34;;;;;;;2.70;1.20;;;7.30;99.90;;;;;;5045703;28;20060;-76
2023/11/28 06:10:00;;;;;;;6.20;1.42;;;7.20;99.90;;;;;;5029452;28;20025;-76
2023/11/28 06:12:25;;;;;;;5.07;1.55;;;7.20;99.90;;;;;;5045729;28;20160;-76
2023/11/28 06:14:54;;;;;;;5.43;1.52;;;7.10;99.90;;;;;;5046647;28;20342;-76
2023/11/28 06:17:19;;;;;;;5.88;1.35;;;7.00;99.90;;;;;;5045692;28;20026;-76
2023/11/28 06:19:45;;;;;;;3.85;1.10;;;6.90;99.90;;;;;;5012839;28;20083;-75
2023/11/28 06:22:11;;;;;;;3.17;1.20;;;6.80;99.90;;;;;;5012802;28;20048;-76
2023/11/28 06:24:39;;;;;;;2.35;1.00;;;6.80;99.90;;;;;;5029144;28;20036;-76
2023/11/28 06:27:05;;;;;;;4.53;1.10;;;6.80;99.90;;;;;;5045417;28;20037;-76
2023/11/28 06:29:34;;;;;;;2.85;1.30;;;6.70;99.90;;;;;;5045403;28;20291;-76
2023/11/28 06:32:00;;;;;;;5.25;1.25;;;6.70;99.90;;;;;;5012974;28;20052;-76
2023/11/28 06:34:28;;;;;;;2.90;1.20;;;6.60;99.90;;;;;;5028834;28;20183;-75
2023/11/28 06:36:54;;;;;;;5.82;1.70;;;6.60;99.90;;;;;;5045331;28;20195;-75
2023/11/28 06:39:23;;;;;;;3.95;1.52;;;6.50;99.90;;;;;;5044719;28;20033;-76
2023/11/28 06:41:51;;;;;;;5.35;1.30;;;6.40;99.90;;;;;;5045253;28;20056;-75
2023/11/28 06:44:20;;;;;;;3.78;1.35;;;6.30;99.90;;;;;;5045261;28;20098;-76
2023/11/28 06:46:49;;;;;;;5.45;1.35;;;6.30;99.90;;;;;;5045762;28;20346;-76
2023/11/28 06:49:15;;;;;;;3.25;1.30;;;6.10;99.90;;;;;;5044940;28;20207;-75
2023/11/28 06:51:41;;;;;;;2.47;1.15;;;6.10;99.90;;;;;;5046001;28;20036;-75
2023/11/28 06:54:06;;;;;;;4.22;1.30;;;6.00;99.90;;;;;;5045865;28;20190;-75
2023/11/28 06:56:32;;;;;;;5.43;1.38;;;6.00;99.90;;;;;;5044983;28;20021;-75
2023/11/28 06:58:58;;;;;;;5.68;1.30;;;5.90;99.90;;;;;;5044870;28;20048;-75
2023/11/28 07:01:24;;;;;;;7.35;1.35;;;5.80;99.90;;;;;;5044782;28;20057;-75
2023/11/28 07:03:50;;;;;;;3.30;1.10;;;5.80;99.90;;;;;;5046018;28;20029;-75
2023/11/28 07:06:16;;;;;;;5.97;1.40;;;5.70;99.90;;;;;;5044825;28;20283;-74
2023/11/28 07:08:41;;;;;;;3.55;1.27;;;5.70;99.90;;;;;;5044773;28;20079;-73
2023/11/28 07:11:16;;;;;;;2.35;1.13;;;5.60;99.90;;;;;;5044614;28;20083;-74
2023/11/28 07:13:42;;;;;;;4.15;1.67;;;5.50;99.90;;;;;;5012237;28;20247;-74
2023/11/28 07:16:08;;;;;;;4.35;1.58;;;5.50;99.90;;;;;;5044665;28;20061;-73
2023/11/28 07:18:34;;;;;;;4.63;1.20;;;5.50;99.90;;;;;;5045313;28;20341;-76
2023/11/28 07:21:00;;;;;;;5.95;1.30;;;5.40;99.90;;;;;;5044348;28;20348;-74
2023/11/28 07:23:26;;;;;;;6.25;1.85;;;5.30;99.90;;;;;;5045439;28;20033;-74
2023/11/28 07:25:52;;;;;;;5.55;2.10;;;5.30;99.90;;;;;;5044278;28;20022;-75
2023/11/28 07:28:18;;;;;;;5.95;1.70;;;5.30;99.90;;;;;;5011882;28;20025;-75
2023/11/28 07:30:45;;;;;;;5.88;2.20;;;5.30;99.90;;;;;;5045238;28;20032;-74
2023/11/28 07:33:11;;;;;;;11.50;1.92;;;5.30;99.90;;;;;;5044228;28;20239;-75
2023/11/28 07:35:37;;;;;;;4.93;1.25;;;5.20;99.90;;;;;;5045299;28;20033;-75
2023/11/28 07:38:03;;;;;;;4.07;2.40;;;5.10;99.90;;;;;;5045306;28;20029;-77
2023/11/28 07:40:30;;;;;;;5.00;1.80;;;5.10;99.90;;;;;;5044698;28;20029;-74
2023/11/28 07:42:56;;;;;;;6.10;1.92;;;5.10;99.90;;;;;;5044542;28;20231;-74
2023/11/28 07:45:22;;;;;;;4.22;1.70;;;5.00;99.90;;;;;;5027701;28;20164;-75
2023/11/28 07:47:47;;;;;;;6.32;2.40;;;4.80;99.90;;;;;;5044528;28;20013;-74
2023/11/28 07:50:13;;;;;;;5.05;1.90;;;4.90;99.90;;;;;;5044324;28;20314;-74
2023/11/28 07:52:39;;;;;;;6.20;2.65;;;4.90;99.90;;;;;;5043788;28;20076;-75
2023/11/28 07:55:07;;;;;;;5.05;1.92;;;4.80;99.90;;;;;;5044054;28;20194;-74
2023/11/28 07:57:33;;;;;;;5.13;1.50;;;4.80;99.90;;;;;;5044299;28;20045;-74
2023/11/28 07:59:59;;;;;;;6.43;1.63;;;4.70;99.90;;;;;;5044657;28;20025;-75
2023/11/28 08:02:24;;;;;;;4.60;1.70;;;4.60;99.90;;;;;;5044829;28;20267;-75
2023/11/28 08:04:50;;;;;;;2.97;1.52;;;4.60;99.90;;;;;;5044731;28;20033;-75
2023/11/28 08:07:17;;;;;;;3.80;1.35;;;4.50;99.90;;;;;;5043713;28;20029;-75
2023/11/28 08:09:42;;;;;;;3.33;1.40;;;4.40;99.90;;;;;;5011562;28;20032;-74
2023/11/28 08:12:08;;;;;;;63.33;18.63;;;4.40;99.90;;;;;;5027271;28;20025;-74
2023/11/28 08:14:34;;;;;;;6.80;2.53;;;4.40;99.90;;;;;;5043935;28;20057;-74
2023/11/28 08:16:59;;;;;;;7.50;3.40;;;4.40;99.90;;;;;;5044858;28;20237;-74
2023/11/28 08:19:26;;;;;;;6.68;1.85;;;4.30;99.90;;;;;;5043963;28;20125;-75
2023/11/28 08:21:51;;;;;;;4.78;2.10;;;4.30;99.90;;;;;;5045286;28;20029;-74
2023/11/28 08:24:17;;;;;;;8.48;2.30;;;4.30;99.90;;;;;;5044747;28;20032;-74
2023/11/28 08:26:43;;;;;;;4.45;1.80;;;4.30;99.90;;;;;;5026986;28;20033;-75
2023/11/28 08:29:09;;;;;;;7.45;2.05;;;4.40;99.90;;;;;;5043783;28;20026;-74
2023/11/28 08:31:35;;;;;;;4.57;1.60;;;4.40;99.90;;;;;;5044254;28;20032;-75
2023/11/28 08:34:00;;;;;;;8.95;3.40;;;4.50;99.90;;;;;;5027243;28;20029;-74
2023/11/28 08:36:27;;;;;;;9.77;3.97;;;4.50;99.90;;;;;;5043336;28;20267;-76
2023/11/28 08:38:53;;;;;;;11.32;4.00;;;4.50;99.90;;;;;;5010958;28;20032;-75
2023/11/28 08:41:19;;;;;;;5.38;2.60;;;4.50;99.90;;;;;;5043092;28;20194;-75
2023/11/28 08:43:44;;;;;;;9.88;2.17;;;4.50;99.90;;;;;;5043331;28;20033;-75
2023/11/28 08:46:14;;;;;;;7.75;2.80;;;4.50;99.90;;;;;;5043342;28;20029;-74
2023/11/28 08:48:43;;;;;;;5.53;1.95;;;4.50;99.90;;;;;;5043819;28;20080;-75
2023/11/28 08:51:09;;;;;;;8.40;2.70;;;4.50;99.90;;;;;;5042694;28;20034;-75
2023/11/28 08:53:34;;;;;;;4.65;2.40;;;4.50;99.90;;;;;;5010014;28;20080;-75
2023/11/28 08:56:00;;;;;;;6.05;2.83;;;4.50;99.90;;;;;;5044337;28;20037;-75
2023/11/28 08:58:26;;;;;;;6.47;3.40;;;4.50;99.90;;;;;;5043402;28;20305;-75
2023/11/28 09:00:55;;;;;;;13.63;5.18;;;4.60;99.90;;;;;;5027039;28;20048;-75
2023/11/28 09:03:21;;;;;;;11.68;4.50;;;4.70;99.90;;;;;;5028969;28;20052;-75
2023/11/28 09:05:47;;;;;;;7.43;2.92;;;4.80;99.90;;;;;;5046834;28;20033;-75
2023/11/28 09:08:13;;;;;;;5.05;2.13;;;4.90;99.90;;;;;;5046248;28;20051;-75
2023/11/28 09:10:39;;;;;;;4.80;1.83;;;5.10;99.90;;;;;;5047216;28;20045;-75
2023/11/28 09:13:04;;;;;;;6.15;2.00;;;5.20;99.90;;;;;;5030008;28;20067;-76
2023/11/28 09:15:30;;;;;;;11.00;3.13;;;6.40;99.90;;;;;;5047453;28;20183;-76
2023/11/28 09:17:56;;;;;;;4.85;1.60;;;8.00;99.90;;;;;;5030042;28;20029;-75
2023/11/28 09:20:21;;;;;;;3.50;1.73;;;9.10;99.90;;;;;;5046368;28;20044;-76
2023/11/28 09:22:47;;;;;;;6.35;4.00;;;10.00;99.90;;;;;;5046737;28;20013;-76
2023/11/28 09:25:14;;;;;;;4.63;1.70;;;10.80;99.90;;;;;;5029924;28;20052;-77
2023/11/28 09:27:40;;;;;;;4.20;1.67;;;11.30;99.90;;;;;;5047535;28;20044;-76
2023/11/28 09:30:06;;;;;;;3.25;1.48;;;11.50;99.90;;;;;;5029771;28;20017;-76
2023/11/28 09:32:32;;;;;;;4.95;2.42;;;11.90;99.90;;;;;;5029791;28;20248;-76
2023/11/28 09:34:58;;;;;;;5.53;2.97;;;12.70;99.90;;;;;;5046271;28;20053;-76
2023/11/28 09:37:24;;;;;;;6.25;2.78;;;13.10;99.90;;;;;;5029835;28;20314;-76
2023/11/28 09:39:49;;;;;;;6.65;2.90;;;12.70;97.00;;;;;;5046307;28;20030;-77
2023/11/28 09:42:15;;;;;;;6.57;2.92;;;11.10;99.90;;;;;;5047199;28;20283;-76
2023/11/28 09:44:45;;;;;;;8.68;2.75;;;10.20;99.90;;;;;;5013021;28;20021;-76
2023/11/28 09:47:11;;;;;;;6.63;2.42;;;9.50;99.90;;;;;;5046023;28;20038;-76
2023/11/28 09:49:41;;;;;;;8.20;3.60;;;9.00;99.90;;;;;;5045679;28;20053;-76
2023/11/28 09:52:07;;;;;;;;;;;8.50;99.90;;;;;;5047460;28;20026;-76
2023/11/28 09:54:33;;;;;;;10.15;4.55;;;8.20;99.90;;;;;;5046810;28;19963;-76
2023/11/28 09:57:00;;;;;;;12.45;4.25;;;8.00;99.90;;;;;;5029251;28;20033;-76
2023/11/28 09:59:27;;;;;;;12.18;3.92;;;7.90;99.90;;;;;;5029493;28;20243;-76
2023/11/28 10:01:52;;;;;;;11.30;3.92;;;7.70;99.90;;;;;;5029277;28;20029;-76
2023/11/28 10:04:21;;;;;;;8.25;3.92;;;7.60;99.90;;;;;;5046926;28;20285;-76
2023/11/28 10:06:49;;;;;;;8.80;3.80;;;7.50;99.90;;;;;;5045677;28;20025;-76
2023/11/28 10:09:16;;;;;;;6.53;3.92;;;7.40;99.90;;;;;;5046649;28;20025;-77
2023/11/28 10:11:42;;;;;;;12.85;4.72;;;7.40;99.90;;;;;;5045753;28;20056;-76
2023/11/28 10:14:08;;;;;;;5.10;3.00;;;7.30;99.90;;;;;;5044759;28;20038;-76
2023/11/28 10:16:44;;;;;;;5.43;2.10;;;7.30;99.90;;;;;;5028452;28;20104;-76
2023/11/28 10:19:09;;;;;;;10.60;4.85;;;7.40;99.90;;;;;;5028775;28;20049;-76
2023/11/28 10:21:35;;;;;;;3.90;1.65;;;7.40;99.90;;;;;;5045456;28;20377;-76
2023/11/28 10:24:01;;;;;;;5.60;1.75;;;7.40;99.90;;;;;;5029038;28;20037;-76
2023/11/28 10:26:27;;;;;;;7.28;2.03;;;7.20;99.90;;;;;;5045514;28;20033;-76
2023/11/28 10:28:54;;;;;;;7.22;2.60;;;7.20;99.90;;;;;;5045265;28;20048;-76
2023/11/28 10:31:19;;;;;;;5.65;2.03;;;7.20;99.90;;;;;;5045036;28;20029;-76
2023/11/28 10:33:45;;;;;;;10.30;2.33;;;7.20;99.90;;;;;;5045378;28;20044;-76
2023/11/28 10:36:13;;;;;;;9.35;2.60;;;7.20;99.90;;;;;;5028785;28;20029;-76
2023/11/28 10:38:39;;;;;;;6.68;2.05;;;7.10;99.90;;;;;;5044936;28;20033;-75
2023/11/28 10:41:05;;;;;;;5.63;2.65;;;7.10;99.90;;;;;;5028581;28;20044;-76
2023/11/28 10:43:31;;;;;;;8.10;2.47;;;7.10;99.90;;;;;;5045993;28;20076;-76
2023/11/28 10:45:57;;;;;;;7.20;2.10;;;7.10;99.90;;;;;;5044725;28;20069;-75
2023/11/28 10:48:23;;;;;;;5.78;2.00;;;7.10;99.90;;;;;;5045388;28;20034;-75
2023/11/28 10:50:49;;;;;;;6.97;2.28;;;7.20;99.90;;;;;;5027998;28;20337;-76
2023/11/28 10:53:16;;;;;;;6.97;2.67;;;7.30;99.90;;;;;;5028130;28;20034;-76
2023/11/28 10:55:54;;;;;;;7.97;2.75;;;7.30;99.90;;;;;;5044522;28;20057;-76
2023/11/28 10:58:21;;;;;;;9.68;3.42;;;7.40;99.90;;;;;;5028262;28;20060;-76
2023/11/28 11:00:52;;;;;;;11.18;4.20;;;7.50;99.90;;;;;;5044323;28;20041;-76
2023/11/28 11:03:17;;;;;;;8.15;3.60;;;7.60;99.90;;;;;;5028721;28;20186;-76
2023/11/28 11:05:43;;;;;;;10.00;3.20;;;7.80;99.90;;;;;;5028029;28;20029;-76
2023/11/28 11:08:09;;;;;;;5.03;2.65;;;8.00;99.90;;;;;;5044538;28;20251;-77
2023/11/28 11:10:35;;;;;;;4.07;2.42;;;8.30;99.90;;;;;;5044409;28;20040;-76
2023/11/28 11:13:13;;;;;;;5.95;1.80;;;8.50;99.90;;;;;;5044434;28;20013;-76
2023/11/28 11:15:57;;;;;;;5.93;1.92;;;8.80;99.90;;;;;;5045447;28;20120;-76
2023/11/28 11:18:28;;;;;;;5.20;2.13;;;9.00;99.90;;;;;;5044978;28;20029;-76
2023/11/28 11:21:06;;;;;;;4.70;2.15;;;9.10;99.90;;;;;;5044979;28;20092;-77
2023/11/28 11:23:32;;;;;;;7.10;2.00;;;9.20;99.90;;;;;;5012855;28;20021;-77
2023/11/28 11:25:57;;;;;;;5.93;2.00;;;9.10;99.90;;;;;;5045217;28;20029;-76
2023/11/28 11:28:23;;;;;;;7.97;2.10;;;9.10;99.90;;;;;;5044910;28;20297;-77
2023/11/28 11:30:49;;;;;;;7.30;3.05;;;9.00;99.90;;;;;;5044148;28;20056;-77
2023/11/28 11:33:23;;;;;;;5.32;3.33;;;8.90;99.90;;;;;;5044720;28;20140;-77
2023/11/28 11:36:04;;;;;;;8.48;3.38;;;8.90;99.90;;;;;;5028827;28;20021;-76
2023/11/28 11:38:29;;;;;;;8.40;2.80;;;8.80;99.90;;;;;;5027677;28;20243;-77
2023/11/28 11:40:55;;;;;;;9.85;3.83;;;8.70;99.90;;;;;;5027741;28;20056;-76
2023/11/28 11:43:22;;;;;;;7.78;3.20;;;8.60;99.90;;;;;;5043882;28;20045;-77
2023/11/28 11:45:48;;;;;;;7.07;2.90;;;8.60;99.90;;;;;;5043667;28;20037;-77
2023/11/28 11:48:30;;;;;;;8.55;3.10;;;8.50;99.90;;;;;;5044127;28;20187;-76
2023/11/28 11:50:56;;;;;;;12.55;4.43;;;8.40;99.90;;;;;;5044103;28;20037;-76
2023/11/28 11:53:23;;;;;;;15.88;6.55;;;8.40;99.90;;;;;;5043733;28;20044;-76
2023/11/28 11:55:48;;;;;;;66.28;28.55;;;8.40;99.90;;;;;;5043723;28;20042;-76
2023/11/28 11:58:14;;;;;;;30.42;16.60;;;8.40;99.90;;;;;;5043693;28;20033;-76
2023/11/28 12:00:43;;;;;;;19.13;9.13;;;8.40;99.90;;;;;;5027321;28;20096;-76
2023/11/28 12:03:09;;;;;;;17.80;7.18;;;8.40;99.90;;;;;;5043690;28;20044;-77
2023/11/28 12:05:35;;;;;;;10.77;4.90;;;8.40;99.90;;;;;;5027473;28;20033;-76
2023/11/28 12:08:01;;;;;;;8.60;4.18;;;8.50;99.90;;;;;;5043760;28;20025;-76
2023/11/28 12:10:27;;;;;;;7.97;2.60;;;8.40;99.90;;;;;;5043807;28;20036;-77
2023/11/28 12:12:52;;;;;;;6.30;2.70;;;8.50;99.90;;;;;;5043980;28;20037;-78
2023/11/28 12:15:18;;;;;;;6.60;3.13;;;8.50;99.90;;;;;;5027148;28;20267;-78
2023/11/28 12:17:46;;;;;;;5.30;2.90;;;8.60;99.90;;;;;;5010481;28;20033;-77
2023/11/28 12:20:11;;;;;;;4.85;2.33;;;8.60;99.90;;;;;;5043447;28;20083;-77
2023/11/28 12:22:37;;;;;;;6.10;2.50;;;8.60;99.90;;;;;;5010781;28;20025;-77
2023/11/28 12:25:03;;;;;;;5.90;2.72;;;8.70;99.90;;;;;;5027084;28;20034;-76
2023/11/28 12:27:29;;;;;;;8.27;3.10;;;8.80;99.90;;;;;;5044138;28;20048;-77
2023/11/28 12:29:55;;;;;;;7.78;2.15;;;8.90;99.90;;;;;;5044288;28;20025;-77
2023/11/28 12:32:21;;;;;;;7.28;3.08;;;9.00;99.90;;;;;;5044209;28;20109;-77
2023/11/28 12:34:46;;;;;;;8.10;2.95;;;8.90;99.90;;;;;;5044684;28;20100;-77
2023/11/28 12:37:12;;;;;;;4.13;2.30;;;9.10;99.90;;;;;;5043737;28;20029;-77
2023/11/28 12:39:39;;;;;;;8.05;3.17;;;9.10;99.90;;;;;;5047084;28;20048;-77
2023/11/28 12:42:05;;;;;;;6.18;2.65;;;9.10;99.90;;;;;;5047085;28;20097;-76
2023/11/28 12:44:32;;;;;;;4.20;2.30;;;9.20;99.90;;;;;;5046426;28;20199;-77
2023/11/28 12:46:58;;;;;;;5.03;1.60;;;9.20;99.90;;;;;;5046806;28;20037;-76
2023/11/28 12:49:25;;;;;;;4.22;1.83;;;9.10;99.90;;;;;;5046781;28;20041;-77
2023/11/28 12:51:50;;;;;;;4.80;2.03;;;9.00;99.90;;;;;;5047032;28;20226;-76